Nearby METAR Reports

 

KPBH - Phillips, Wisconsin, USA
Distance from station: SE 13mi, 21km
Updated: 11/15/2019 3:15pm
Clear
Clear
 Wind from NNW
Wind: NNW 3 mph , 6 km/h
Temperature: 32°F , 0°C
Dew Point: 14°F , -10°C
Humidity: 47%
Barometer: 30.32 inHg , 1026.8 hPa
Clouds: Clear
Visibility: 10 miles , 16 km
2019/11/15 21:15 KPBH 152115Z AUTO 34003KT 10SM CLR 00/M10 A3032 RMK AO2 T00001104
KRCX - Ladysmith/Rusk, Wisconsin, USA
Distance from station: SW 29mi, 46km
Updated: 11/15/2019 3:15pm
Clear
Clear
 Wind from calm
Wind: Calm
Temperature: 37°F , 3°C
Dew Point: 9°F , -13°C
Humidity: 30%
Barometer: 30.35 inHg , 1027.8 hPa
Clouds: Clear
Visibility: 10 miles , 16 km
2019/11/15 21:15 KRCX 152115Z AUTO 00000KT 10SM CLR 03/M13 A3035 RMK AO2 T00251134
 
KD25 - Manitowish Water, Wisconsin, USA
Distance from station: ENE 41mi, 66km
Updated: 11/15/2019 3:15pm
Clear
Clear
 Wind from NNE
Wind: NNE 6 mph , 9 km/h
Temperature: 28°F , -2°C
Wind Chill: 21°F , -6°C
Dew Point: 12°F , -11°C
Humidity: 51%
Barometer: 30.33 inHg , 1027.1 hPa
Clouds: Clear
Visibility: 10 miles , 16 km
2019/11/15 21:15 KD25 152115Z AUTO 03005KT 10SM CLR M02/M11 A3033 RMK AO2 T10171114
KHYR - Hayward, Wisconsin, USA
Distance from station: WNW 42mi, 68km
Updated: 11/15/2019 2:53pm
Clear
Clear
 Wind from S
Wind: S 5 mph , 7 km/h
Temperature: 34°F , 1°C
Wind Chill: 29°F , -2°C
Dew Point: 10°F , -12°C
Humidity: 38%
Barometer: 30.34 inHg , 1027.4 hPa
Clouds: Clear
Visibility: 10 miles , 16 km
2019/11/15 20:53 KHYR 152053Z AUTO 18004KT 10SM CLR 01/M12 A3034 RMK AO2 SLP294 T00111117 58003
 
KARV - Minocqua/Woodruf, Wisconsin, USA
Distance from station: E 44mi, 71km
Updated: 11/15/2019 3:15pm
Clear
Clear
 Wind from N
Wind: N 6 mph , 9 km/h
Temperature: 32°F , 0°C
Wind Chill: 26°F , -3°C
Dew Point: 14°F , -10°C
Humidity: 47%
Barometer: 30.32 inHg , 1026.8 hPa
Clouds: Clear
Visibility: 10 miles , 16 km
2019/11/15 21:15 KARV 152115Z AUTO 35005KT 10SM CLR 00/M10 A3032 RMK AO2 T10011101
KTKV - Tomahawk Regnl, Wisconsin, USA
Distance from station: ESE 46mi, 74km
Updated: 11/15/2019 3:15pm
Clear
Clear
 Wind from NNE
Wind: NNE 3 mph , 6 km/h
Temperature: 34°F , 1°C
Dew Point: 12°F , -11°C
Humidity: 41%
Barometer: 30.33 inHg , 1027.1 hPa
Clouds: Clear
Visibility: 10 miles , 16 km
2019/11/15 21:15 KTKV 152115Z AUTO 02003KT 10SM CLR 01/M11 A3033 RMK AO2 T00051110